Time;durP1;ratioP1;P1;durP2;ratioP2;P2;SDS_P1;SDS_P2;PMS_P1;PMS_P2;Temp;Humidity;BMP_temperature;BMP_pressure;BME280_temperature;BME280_humidity;BME280_pressure;Samples;Min_cycle;Max_cycle;Signal;HPM_P1;HPM_P2
2023/07/12 00:01:17;;;;;;;7.85;1.98;;;19.00;99.90;;;;;;5006688;28;20065;-68
2023/07/12 00:03:43;;;;;;;8.15;1.88;;;18.90;99.90;;;;;;4959137;28;212366;-69
2023/07/12 00:06:15;;;;;;;9.52;1.73;;;18.90;99.90;;;;;;5004573;28;20050;-68
2023/07/12 00:08:42;;;;;;;6.88;1.73;;;18.90;99.90;;;;;;4987809;28;216494;-68
2023/07/12 00:11:15;;;;;;;6.47;1.80;;;18.80;99.90;;;;;;5004639;28;20081;-68
2023/07/12 00:13:42;;;;;;;6.80;1.80;;;18.80;99.90;;;;;;4947512;28;213001;-68
2023/07/12 00:16:36;;;;;;;7.40;2.10;;;18.80;99.90;;;;;;5005017;28;20138;-68
2023/07/12 00:19:04;;;;;;;10.05;2.05;;;18.80;99.90;;;;;;4962249;28;125043;-69
2023/07/12 00:21:32;;;;;;;7.60;2.10;;;18.80;99.90;;;;;;5005936;28;207880;-69
2023/07/12 00:24:00;;;;;;;7.93;1.92;;;18.70;99.90;;;;;;4993544;28;214172;-69
2023/07/12 00:26:27;;;;;;;8.43;2.10;;;18.70;99.90;;;;;;5025887;28;20053;-67
2023/07/12 00:28:58;;;;;;;6.70;1.80;;;18.70;99.90;;;;;;4956971;28;209736;-68
2023/07/12 00:31:25;;;;;;;7.45;1.90;;;18.70;99.90;;;;;;5014609;28;20599;-69
2023/07/12 00:33:52;;;;;;;11.27;2.10;;;18.70;99.90;;;;;;4965327;28;210539;-67
2023/07/12 00:36:22;;;;;;;6.78;2.22;;;18.70;99.90;;;;;;5007096;28;20092;-68
2023/07/12 00:38:48;;;;;;;8.13;2.03;;;18.70;99.90;;;;;;4971053;28;217720;-68
2023/07/12 00:41:39;;;;;;;6.72;2.17;;;18.70;99.90;;;;;;5025520;28;20056;-69
2023/07/12 00:44:13;;;;;;;7.55;2.30;;;18.70;99.90;;;;;;4960927;28;74737;-69
2023/07/12 00:46:44;;;;;;;9.85;2.30;;;18.70;99.90;;;;;;4974049;28;206832;-69
2023/07/12 00:49:10;;;;;;;8.80;2.28;;;18.70;99.90;;;;;;5039428;28;20064;-68
2023/07/12 00:51:36;;;;;;;8.20;2.47;;;18.60;99.90;;;;;;4974750;28;208073;-68
2023/07/12 00:54:15;;;;;;;9.50;2.30;;;18.70;99.90;;;;;;5023279;28;20045;-68
2023/07/12 00:56:41;;;;;;;8.77;2.63;;;18.60;99.90;;;;;;4964046;28;215884;-68
2023/07/12 00:59:20;;;;;;;7.50;2.58;;;18.60;99.90;;;;;;5002247;28;20052;-68
2023/07/12 01:01:50;;;;;;;8.00;2.35;;;18.60;99.90;;;;;;4972009;28;219046;-68
2023/07/12 01:04:21;;;;;;;7.65;2.60;;;18.50;99.90;;;;;;5001773;28;20054;-67
2023/07/12 01:06:49;;;;;;;8.45;2.85;;;18.60;99.90;;;;;;4962759;28;209984;-69
2023/07/12 01:09:17;;;;;;;7.05;2.63;;;18.50;99.90;;;;;;5040747;28;20076;-68
2023/07/12 01:11:45;;;;;;;10.18;2.90;;;18.50;99.90;;;;;;4969665;28;212178;-69
2023/07/12 01:14:14;;;;;;;9.20;2.88;;;18.40;99.90;;;;;;5021005;28;20061;-69
2023/07/12 01:16:43;;;;;;;9.13;2.78;;;18.40;99.90;;;;;;4973634;28;207247;-68
2023/07/12 01:19:10;;;;;;;9.10;2.75;;;18.40;99.90;;;;;;5034319;28;20072;-67
2023/07/12 01:21:41;;;;;;;11.85;3.00;;;18.40;99.90;;;;;;4978457;28;207643;-68
2023/07/12 01:24:07;;;;;;;10.38;3.28;;;18.40;99.90;;;;;;5036646;28;20422;-67
2023/07/12 01:26:37;;;;;;;7.10;2.40;;;18.40;99.90;;;;;;4985943;28;214367;-67
2023/07/12 01:29:06;;;;;;;9.95;3.53;;;18.40;99.90;;;;;;5009530;28;20044;-69
2023/07/12 01:31:33;;;;;;;9.38;3.10;;;18.40;99.90;;;;;;4996106;28;207943;-68
2023/07/12 01:33:59;;;;;;;9.25;3.20;;;18.40;99.90;;;;;;4995958;28;20049;-68
2023/07/12 01:36:27;;;;;;;9.35;3.33;;;18.30;99.90;;;;;;5024882;28;20084;-69
2023/07/12 01:38:55;;;;;;;12.73;3.58;;;18.20;99.90;;;;;;4958665;28;259568;-69
2023/07/12 01:41:23;;;;;;;8.93;3.50;;;18.20;99.90;;;;;;5002683;28;20054;-68
2023/07/12 01:43:49;;;;;;;10.60;3.67;;;18.20;99.90;;;;;;4975171;28;208623;-68
2023/07/12 01:46:15;;;;;;;8.45;3.10;;;18.20;99.90;;;;;;5025101;28;20057;-70
2023/07/12 01:48:42;;;;;;;9.25;3.63;;;18.10;99.90;;;;;;4988127;28;206200;-69
2023/07/12 01:51:08;;;;;;;11.43;3.60;;;18.10;99.90;;;;;;5023131;28;20060;-68
2023/07/12 01:53:35;;;;;;;10.18;3.33;;;18.10;99.90;;;;;;4946234;28;212945;-68
2023/07/12 01:56:02;;;;;;;9.85;3.45;;;18.00;99.90;;;;;;5024195;28;20052;-69
2023/07/12 01:58:29;;;;;;;11.82;3.25;;;18.00;99.90;;;;;;4951601;28;211338;-67
2023/07/12 02:00:57;;;;;;;8.95;3.10;;;18.00;99.90;;;;;;5026352;28;20057;-69
2023/07/12 02:03:25;;;;;;;9.25;3.10;;;17.90;99.90;;;;;;4980069;28;207265;-68
2023/07/12 02:05:51;;;;;;;9.88;3.20;;;17.90;99.90;;;;;;5025810;28;20058;-68
2023/07/12 02:08:17;;;;;;;11.45;3.40;;;17.90;99.90;;;;;;4953689;28;212492;-68
2023/07/12 02:10:43;;;;;;;12.75;3.20;;;17.90;99.90;;;;;;5005359;28;20064;-68
2023/07/12 02:13:10;;;;;;;11.27;2.90;;;17.80;99.90;;;;;;4978868;28;207620;-67
2023/07/12 02:15:36;;;;;;;11.07;3.17;;;17.90;99.90;;;;;;5019440;28;20053;-68
2023/07/12 02:18:03;;;;;;;10.13;2.97;;;17.80;99.90;;;;;;4965389;28;207407;-69
2023/07/12 02:20:29;;;;;;;10.68;3.30;;;17.80;99.90;;;;;;5018423;28;20057;-68
2023/07/12 02:22:55;;;;;;;13.23;3.50;;;17.80;99.90;;;;;;4975051;28;210095;-68
2023/07/12 02:25:22;;;;;;;13.00;3.35;;;17.80;99.90;;;;;;5023214;28;20049;-67
2023/07/12 02:27:49;;;;;;;10.18;3.25;;;17.80;99.90;;;;;;4966684;28;212511;-70
2023/07/12 02:30:22;;;;;;;11.40;2.90;;;17.70;99.90;;;;;;5024322;28;20766;-69
2023/07/12 02:32:49;;;;;;;17.52;3.15;;;17.70;99.90;;;;;;4944167;28;207687;-69
2023/07/12 02:35:16;;;;;;;9.48;3.08;;;17.70;99.90;;;;;;5022668;28;20084;-68
2023/07/12 02:37:42;;;;;;;9.32;3.03;;;17.70;99.90;;;;;;4964988;28;213835;-67
2023/07/12 02:40:09;;;;;;;11.80;3.38;;;17.60;99.90;;;;;;5030735;28;20072;-68
2023/07/12 02:42:36;;;;;;;16.60;3.70;;;17.60;99.90;;;;;;4974340;28;213687;-68
2023/07/12 02:45:03;;;;;;;14.73;3.22;;;17.60;99.90;;;;;;5025893;28;20491;-68
2023/07/12 02:47:29;;;;;;;15.07;3.53;;;17.60;99.90;;;;;;4976016;28;215739;-69
2023/07/12 02:49:55;;;;;;;13.55;3.63;;;17.60;99.90;;;;;;5032592;28;20430;-69
2023/07/12 02:52:22;;;;;;;12.85;3.60;;;17.60;99.90;;;;;;4978704;28;215983;-69
2023/07/12 02:54:48;;;;;;;12.80;3.63;;;17.50;99.90;;;;;;5037724;28;20064;-69
2023/07/12 02:57:15;;;;;;;17.60;3.60;;;17.50;99.90;;;;;;4954145;28;227710;-70
2023/07/12 02:59:42;;;;;;;11.98;3.97;;;17.50;99.90;;;;;;5033668;28;20061;-69
2023/07/12 03:02:10;;;;;;;14.55;3.92;;;17.50;99.90;;;;;;4975043;28;208310;-69
2023/07/12 03:04:36;;;;;;;14.25;4.07;;;17.40;99.90;;;;;;5034072;28;20057;-68
2023/07/12 03:07:02;;;;;;;15.85;4.30;;;17.20;99.90;;;;;;4977310;28;207188;-69
2023/07/12 03:09:29;;;;;;;16.92;4.22;;;17.10;99.90;;;;;;5038757;28;20630;-69
2023/07/12 03:11:55;;;;;;;12.65;4.05;;;17.00;99.90;;;;;;4971640;28;215736;-68
2023/07/12 03:14:23;;;;;;;18.58;4.43;;;17.10;99.90;;;;;;5035312;28;20080;-69
2023/07/12 03:16:49;;;;;;;14.20;4.38;;;17.00;99.90;;;;;;4972205;28;207982;-68
2023/07/12 03:19:16;;;;;;;15.50;4.57;;;17.00;99.90;;;;;;5018892;28;20061;-66
2023/07/12 03:21:43;;;;;;;14.37;4.63;;;17.00;99.90;;;;;;4966635;28;209000;-68
2023/07/12 03:24:09;;;;;;;17.70;4.50;;;16.90;99.90;;;;;;5035601;28;20054;-68
2023/07/12 03:26:36;;;;;;;17.83;4.57;;;17.00;99.90;;;;;;4979797;28;207120;-68
2023/07/12 03:29:03;;;;;;;18.25;4.80;;;17.00;99.90;;;;;;5014952;28;20193;-68
2023/07/12 03:31:30;;;;;;;14.55;4.30;;;17.00;99.90;;;;;;5008079;28;209515;-68
2023/07/12 03:33:57;;;;;;;19.08;4.43;;;17.00;99.90;;;;;;4977786;28;20049;-68
2023/07/12 03:36:26;;;;;;;15.55;4.22;;;16.90;99.90;;;;;;5023473;28;20499;-69
2023/07/12 03:38:52;;;;;;;16.70;4.60;;;16.90;99.90;;;;;;4974247;28;213760;-69
2023/07/12 03:41:20;;;;;;;16.52;4.40;;;17.00;99.90;;;;;;5026017;28;20084;-68
2023/07/12 03:43:47;;;;;;;17.00;4.85;;;17.00;99.90;;;;;;4977945;28;207959;-69
2023/07/12 03:46:14;;;;;;;21.23;5.00;;;17.00;99.90;;;;;;5023946;28;20053;-69
2023/07/12 03:48:41;;;;;;;18.05;4.65;;;17.00;99.90;;;;;;4975720;28;229233;-69
2023/07/12 03:51:09;;;;;;;16.38;4.88;;;17.00;99.90;;;;;;5025078;28;20061;-69
2023/07/12 03:53:35;;;;;;;22.85;5.47;;;17.00;99.90;;;;;;4987301;28;206815;-69
2023/07/12 03:56:01;;;;;;;17.55;4.72;;;17.00;99.90;;;;;;5021181;28;20061;-70
2023/07/12 03:58:32;;;;;;;17.80;4.82;;;17.00;99.90;;;;;;4949785;28;207727;-68
2023/07/12 04:01:03;;;;;;;19.85;4.82;;;16.90;99.90;;;;;;5020401;28;20396;-69
2023/07/12 04:03:30;;;;;;;20.05;4.68;;;17.00;99.90;;;;;;4960430;28;208929;-70
2023/07/12 04:05:56;;;;;;;15.40;4.90;;;17.00;99.90;;;;;;5021848;28;20049;-69
2023/07/12 04:08:22;;;;;;;16.58;5.15;;;17.00;99.90;;;;;;4985891;28;215092;-68
2023/07/12 04:10:53;;;;;;;18.70;5.05;;;17.00;99.90;;;;;;5026614;28;20049;-67
2023/07/12 04:13:20;;;;;;;;;;;17.00;99.90;;;;;;4954484;28;209622;-69
2023/07/12 04:15:46;;;;;;;22.17;5.25;;;17.00;99.90;;;;;;5018972;28;19936;-68
2023/07/12 04:18:12;;;;;;;18.65;5.50;;;17.00;99.90;;;;;;4976601;28;207480;-69
2023/07/12 04:20:39;;;;;;;18.98;5.25;;;17.00;99.90;;;;;;5023231;28;20045;-69
2023/07/12 04:23:06;;;;;;;14.25;4.40;;;17.00;99.90;;;;;;4968856;28;206938;-69
2023/07/12 04:25:32;;;;;;;15.18;4.40;;;17.00;99.90;;;;;;5024205;28;20057;-69
2023/07/12 04:27:58;;;;;;;15.05;4.60;;;17.10;99.90;;;;;;4979507;28;209651;-69
2023/07/12 04:30:24;;;;;;;17.00;4.40;;;17.10;99.90;;;;;;5028783;28;20056;-69
2023/07/12 04:32:52;;;;;;;16.67;4.72;;;17.00;99.90;;;;;;4977446;28;209484;-69
2023/07/12 04:35:19;;;;;;;15.88;4.15;;;17.10;99.90;;;;;;5027887;28;20053;-68
2023/07/12 04:37:47;;;;;;;15.48;4.22;;;17.10;99.90;;;;;;4955510;28;212365;-69
2023/07/12 04:40:13;;;;;;;15.27;4.63;;;17.10;99.90;;;;;;5004959;28;20426;-71
2023/07/12 04:42:40;;;;;;;16.02;4.38;;;17.10;99.90;;;;;;4963451;28;207727;-68
2023/07/12 04:45:09;;;;;;;13.30;4.45;;;17.10;99.90;;;;;;5009005;28;20053;-67
2023/07/12 04:47:36;;;;;;;17.30;4.60;;;17.10;99.90;;;;;;4955611;28;211493;-68
2023/07/12 04:50:07;;;;;;;19.58;4.75;;;17.10;99.90;;;;;;5013260;28;20070;-68
2023/07/12 04:52:34;;;;;;;17.40;4.45;;;17.10;99.90;;;;;;4954539;28;211161;-68
2023/07/12 04:55:03;;;;;;;19.83;4.45;;;17.10;99.90;;;;;;5016848;28;20064;-69
2023/07/12 04:57:30;;;;;;;17.92;4.65;;;17.10;99.90;;;;;;4955041;28;215647;-67
2023/07/12 04:59:57;;;;;;;15.25;4.35;;;17.10;99.90;;;;;;5020811;28;20049;-69
2023/07/12 05:02:23;;;;;;;17.42;4.20;;;17.20;99.90;;;;;;4968017;28;208387;-69
2023/07/12 05:04:49;;;;;;;13.98;4.18;;;17.20;99.90;;;;;;5026996;28;20101;-69
2023/07/12 05:07:16;;;;;;;18.13;5.00;;;17.20;99.90;;;;;;4970488;28;206333;-68
2023/07/12 05:09:42;;;;;;;16.10;4.60;;;17.20;99.90;;;;;;5021133;28;20064;-70
2023/07/12 05:12:08;;;;;;;16.52;4.43;;;17.20;99.90;;;;;;4976410;28;227450;-70
2023/07/12 05:14:34;;;;;;;17.38;4.53;;;17.20;99.90;;;;;;5018091;28;20518;-69
2023/07/12 05:17:00;;;;;;;18.20;4.40;;;17.20;99.90;;;;;;4965507;28;207879;-69
2023/07/12 05:19:26;;;;;;;17.02;4.38;;;17.20;99.90;;;;;;5032072;28;20486;-69
2023/07/12 05:21:52;;;;;;;17.60;4.93;;;17.20;99.90;;;;;;4973166;28;206502;-70
2023/07/12 05:24:19;;;;;;;16.40;4.45;;;17.30;99.90;;;;;;5031541;28;20426;-69
2023/07/12 05:26:45;;;;;;;17.40;4.50;;;17.30;99.90;;;;;;4972696;28;208547;-69
2023/07/12 05:29:12;;;;;;;19.55;4.88;;;17.40;99.90;;;;;;5019640;28;20049;-69
2023/07/12 05:31:38;;;;;;;21.23;4.90;;;17.40;99.90;;;;;;4970616;28;206778;-69
2023/07/12 05:34:05;;;;;;;15.68;4.78;;;17.50;99.90;;;;;;5003375;28;20045;-70
2023/07/12 05:36:31;;;;;;;15.32;4.32;;;17.60;99.90;;;;;;4989820;28;211790;-69
2023/07/12 05:38:58;;;;;;;16.40;4.28;;;17.70;99.90;;;;;;4983944;28;72001;-70
2023/07/12 05:41:25;;;;;;;16.55;4.72;;;17.70;99.90;;;;;;5008870;28;20057;-70
2023/07/12 05:43:51;;;;;;;19.08;4.75;;;17.60;99.90;;;;;;4962893;28;217632;-69
2023/07/12 05:46:17;;;;;;;18.30;5.05;;;17.60;99.90;;;;;;5010348;28;20053;-70
2023/07/12 05:48:43;;;;;;;17.45;5.13;;;17.50;99.90;;;;;;4952551;28;206966;-69
2023/07/12 05:51:10;;;;;;;18.45;5.07;;;17.50;99.90;;;;;;5011731;28;20494;-70
2023/07/12 05:53:36;;;;;;;17.67;4.95;;;17.50;99.90;;;;;;4944594;28;216747;-70
2023/07/12 05:56:04;;;;;;;20.30;5.72;;;17.50;99.90;;;;;;5006981;28;20683;-67
2023/07/12 05:58:31;;;;;;;15.90;5.35;;;17.60;99.90;;;;;;4926297;28;208745;-69
2023/07/12 06:00:59;;;;;;;19.52;5.35;;;17.70;99.90;;;;;;5001944;28;20050;-69
2023/07/12 06:03:26;;;;;;;15.20;5.15;;;17.80;99.90;;;;;;4958478;28;210436;-69
2023/07/12 06:05:52;;;;;;;19.85;5.55;;;18.00;99.90;;;;;;5008283;28;20574;-68
2023/07/12 06:08:19;;;;;;;16.92;5.22;;;18.10;99.90;;;;;;4961057;28;218403;-68
2023/07/12 06:10:45;;;;;;;19.35;5.20;;;18.20;99.90;;;;;;5020652;28;20617;-67
2023/07/12 06:13:12;;;;;;;18.02;5.20;;;18.20;99.90;;;;;;4956377;28;208083;-68
2023/07/12 06:15:38;;;;;;;16.48;4.88;;;18.20;99.90;;;;;;5009588;28;20053;-67
2023/07/12 06:18:04;;;;;;;14.00;5.18;;;18.20;99.90;;;;;;4953710;28;207874;-68
2023/07/12 06:20:31;;;;;;;18.38;5.47;;;18.00;99.90;;;;;;5006785;28;20419;-69
2023/07/12 06:22:57;;;;;;;16.60;5.05;;;18.00;99.90;;;;;;4974039;28;212366;-68
2023/07/12 06:25:24;;;;;;;18.27;5.22;;;17.90;99.90;;;;;;5019403;28;20046;-67
2023/07/12 06:27:50;;;;;;;14.88;4.82;;;17.90;99.90;;;;;;4972267;28;210271;-67
2023/07/12 06:30:18;;;;;;;16.80;5.43;;;17.90;99.90;;;;;;5025448;28;20057;-69
2023/07/12 06:32:44;;;;;;;20.15;5.20;;;17.80;99.90;;;;;;4964744;28;208240;-68
2023/07/12 06:35:11;;;;;;;16.23;4.47;;;17.90;99.90;;;;;;5013563;28;20046;-67
2023/07/12 06:37:38;;;;;;;16.17;4.60;;;17.90;99.90;;;;;;4947806;28;165711;-69
2023/07/12 06:40:05;;;;;;;15.15;5.07;;;18.00;99.90;;;;;;5001296;28;20129;-69
2023/07/12 06:42:32;;;;;;;16.88;4.88;;;18.20;99.90;;;;;;4944277;28;207309;-68
2023/07/12 06:44:59;;;;;;;15.52;4.47;;;18.50;99.90;;;;;;4993730;28;20534;-68
2023/07/12 06:47:28;;;;;;;16.55;4.82;;;18.50;99.90;;;;;;4963356;28;207444;-69
2023/07/12 06:49:54;;;;;;;16.98;4.78;;;18.70;99.90;;;;;;5018759;28;20062;-69
2023/07/12 06:52:20;;;;;;;17.05;4.47;;;18.90;99.90;;;;;;4971311;28;212104;-69
2023/07/12 06:54:47;;;;;;;13.77;3.85;;;18.90;99.90;;;;;;5018652;28;20052;-68
2023/07/12 06:57:13;;;;;;;15.38;4.32;;;19.20;99.90;;;;;;4942932;28;205255;-69
2023/07/12 06:59:39;;;;;;;15.45;4.00;;;19.40;99.90;;;;;;5020639;28;20053;-69
2023/07/12 07:02:09;;;;;;;13.85;3.53;;;19.60;99.90;;;;;;4957051;28;206417;-68
2023/07/12 07:04:36;;;;;;;16.98;4.07;;;19.50;99.90;;;;;;5016641;28;20052;-70
2023/07/12 07:07:02;;;;;;;17.45;4.30;;;19.70;99.90;;;;;;4968251;28;210577;-69
2023/07/12 07:09:28;;;;;;;17.55;4.25;;;19.90;99.90;;;;;;5017406;28;20517;-69
2023/07/12 07:11:54;;;;;;;14.43;3.78;;;20.00;99.90;;;;;;4964677;28;203387;-69
2023/07/12 07:14:20;;;;;;;13.63;3.60;;;20.00;99.90;;;;;;5013837;28;20069;-68
2023/07/12 07:16:46;;;;;;;17.48;3.92;;;19.90;99.90;;;;;;4954566;28;210198;-69
2023/07/12 07:19:12;;;;;;;14.70;3.60;;;19.90;99.90;;;;;;5022268;28;20636;-70
2023/07/12 07:21:41;;;;;;;13.17;3.57;;;20.20;99.90;;;;;;4950869;28;209730;-69
2023/07/12 07:24:08;;;;;;;15.65;3.40;;;20.30;99.90;;;;;;5041610;28;20392;-70
2023/07/12 07:26:35;;;;;;;14.85;3.83;;;20.40;99.90;;;;;;4987937;28;210136;-69
2023/07/12 07:29:01;;;;;;;16.65;3.42;;;20.30;99.90;;;;;;5030937;28;20065;-70
2023/07/12 07:31:28;;;;;;;14.50;3.28;;;20.30;99.90;;;;;;5008060;28;20582;-69
2023/07/12 07:33:54;;;;;;;18.08;3.88;;;20.30;99.90;;;;;;4946813;28;206776;-69
2023/07/12 07:36:20;;;;;;;15.90;3.38;;;20.20;99.90;;;;;;5026054;28;20298;-68
2023/07/12 07:38:47;;;;;;;14.55;3.40;;;20.40;99.90;;;;;;4993414;28;206755;-69
2023/07/12 07:41:15;;;;;;;12.13;3.42;;;20.80;99.90;;;;;;5029650;28;21110;-69
2023/07/12 07:43:44;;;;;;;15.50;3.50;;;20.60;99.90;;;;;;4995465;28;195713;-70
2023/07/12 07:46:11;;;;;;;14.38;3.47;;;20.30;99.90;;;;;;5030757;28;20070;-70
2023/07/12 07:48:38;;;;;;;16.85;3.80;;;20.10;99.90;;;;;;4991140;28;206996;-70
2023/07/12 07:51:06;;;;;;;14.65;3.70;;;20.10;99.90;;;;;;5030099;28;20643;-69
2023/07/12 07:53:32;;;;;;;18.15;3.80;;;20.00;99.90;;;;;;4985503;28;213726;-70
2023/07/12 07:55:58;;;;;;;14.43;3.83;;;19.70;99.90;;;;;;5029060;28;20521;-67
2023/07/12 07:58:24;;;;;;;12.43;3.60;;;19.70;99.90;;;;;;4973854;28;210217;-69
2023/07/12 08:00:52;;;;;;;15.70;3.78;;;19.50;99.90;;;;;;5027769;28;20513;-70
2023/07/12 08:03:18;;;;;;;15.20;3.60;;;19.50;99.90;;;;;;4988096;28;207704;-69
2023/07/12 08:05:45;;;;;;;13.43;3.75;;;19.80;99.90;;;;;;5028078;28;20037;-70
2023/07/12 08:08:12;;;;;;;16.25;3.80;;;19.70;99.90;;;;;;4969790;28;209200;-69
2023/07/12 08:10:38;;;;;;;13.48;3.80;;;19.80;99.90;;;;;;5034517;28;20049;-69
2023/07/12 08:13:05;;;;;;;16.05;4.22;;;20.00;99.90;;;;;;4984276;28;213508;-69
2023/07/12 08:15:31;;;;;;;12.15;3.22;;;20.30;99.90;;;;;;5029027;28;20061;-68
2023/07/12 08:17:57;;;;;;;17.23;3.83;;;20.70;99.90;;;;;;4980343;28;216005;-69
2023/07/12 08:20:25;;;;;;;13.02;3.40;;;20.60;99.90;;;;;;5025625;28;20054;-69
2023/07/12 08:22:52;;;;;;;12.30;3.53;;;20.90;99.90;;;;;;4979745;28;171595;-70
2023/07/12 08:25:18;;;;;;;12.93;3.40;;;21.20;99.90;;;;;;5021743;28;20053;-69
2023/07/12 08:27:44;;;;;;;14.02;3.35;;;21.20;99.90;;;;;;4958600;28;207726;-69
2023/07/12 08:30:11;;;;;;;13.82;3.30;;;21.40;99.90;;;;;;4976189;28;20065;-69
2023/07/12 08:32:37;;;;;;;15.45;4.03;;;21.70;99.90;;;;;;4929795;28;205131;-69
2023/07/12 08:35:04;;;;;;;16.98;3.35;;;21.60;99.90;;;;;;5005557;28;20049;-69
2023/07/12 08:37:30;;;;;;;16.38;3.67;;;21.10;99.90;;;;;;4954884;28;212806;-69
2023/07/12 08:39:56;;;;;;;19.02;4.10;;;20.80;99.90;;;;;;5022214;28;20053;-70
2023/07/12 08:42:30;;;;;;;14.93;3.88;;;20.50;99.90;;;;;;4976429;28;214195;-69
2023/07/12 08:44:59;;;;;;;16.73;4.15;;;20.30;99.90;;;;;;5022912;28;20057;-69
2023/07/12 08:47:32;;;;;;;15.55;3.80;;;20.30;99.90;;;;;;4978911;28;208835;-69
2023/07/12 08:49:58;;;;;;;14.70;4.15;;;20.20;99.90;;;;;;5034063;28;20502;-69
2023/07/12 08:52:30;;;;;;;19.58;4.70;;;19.90;99.90;;;;;;4982634;28;208680;-69
2023/07/12 08:55:00;;;;;;;21.23;4.95;;;20.00;99.90;;;;;;5026298;28;20054;-70
2023/07/12 08:57:29;;;;;;;19.02;5.05;;;20.10;99.90;;;;;;4951936;28;222452;-71
2023/07/12 09:00:01;;;;;;;18.75;5.18;;;19.90;99.90;;;;;;5013773;28;20451;-70
2023/07/12 09:02:28;;;;;;;16.80;4.70;;;19.70;99.90;;;;;;4967950;28;207629;-70
2023/07/12 09:04:58;;;;;;;17.42;4.43;;;19.50;99.90;;;;;;5021704;28;20080;-71
2023/07/12 09:07:30;;;;;;;20.17;4.77;;;19.40;99.90;;;;;;4979564;28;207940;-70
2023/07/12 09:09:58;;;;;;;17.58;4.70;;;19.20;99.90;;;;;;5027526;28;20052;-70
2023/07/12 09:12:32;;;;;;;15.73;4.65;;;19.10;99.90;;;;;;4995162;28;136894;-69
2023/07/12 09:15:05;;;;;;;16.23;4.45;;;18.70;99.90;;;;;;5033309;28;20418;-70
2023/07/12 09:17:43;;;;;;;13.70;3.45;;;18.40;99.90;;;;;;4970201;28;207705;-71
2023/07/12 09:20:25;;;;;;;13.02;3.63;;;18.20;99.90;;;;;;5024604;28;20058;-70
2023/07/12 09:22:51;;;;;;;11.32;3.00;;;18.20;99.90;;;;;;4952924;28;207609;-70
2023/07/12 09:25:27;;;;;;;13.30;3.50;;;18.30;99.90;;;;;;5023893;28;20088;-70
2023/07/12 09:27:54;;;;;;;16.23;4.70;;;18.40;99.90;;;;;;4974493;28;211658;-71
2023/07/12 09:30:25;;;;;;;16.48;5.05;;;18.80;99.90;;;;;;5030936;28;20057;-70
2023/07/12 09:32:52;;;;;;;;;;;20.00;99.90;;;;;;4966432;28;207105;-70
2023/07/12 09:35:23;;;;;;;14.63;4.57;;;20.60;99.90;;;;;;5025422;28;19932;-70
2023/07/12 09:37:58;;;;;;;12.70;3.88;;;21.40;99.90;;;;;;4960102;28;219645;-71
2023/07/12 09:40:27;;;;;;;14.32;3.83;;;21.60;99.90;;;;;;5017643;28;20080;-69
2023/07/12 09:42:57;;;;;;;14.88;3.92;;;20.90;99.90;;;;;;4966112;28;231012;-68
2023/07/12 09:45:29;;;;;;;13.53;3.30;;;20.40;99.90;;;;;;5004051;28;20519;-71
2023/07/12 09:48:42;;;;;;;15.50;4.15;;;20.60;99.90;;;;;;4943985;28;207479;-70
2023/07/12 09:51:43;;;;;;;14.02;3.50;;;20.70;99.90;;;;;;5022999;28;20058;-71
2023/07/12 09:54:26;;;;;;;16.02;3.88;;;21.00;99.90;;;;;;4922986;28;207418;-71
2023/07/12 09:56:58;;;;;;;14.05;3.70;;;21.80;99.90;;;;;;4930800;28;273488;-70
2023/07/12 09:59:58;;;;;;;13.18;3.72;;;21.60;99.90;;;;;;5033258;28;20125;-70
2023/07/12 10:02:31;;;;;;;12.70;3.22;;;22.50;99.90;;;;;;4956597;28;172490;-70
2023/07/12 10:05:04;;;;;;;12.85;3.55;;;23.30;99.90;;;;;;5020728;28;20067;-69
2023/07/12 10:07:45;;;;;;;12.85;2.83;;;23.60;99.90;;;;;;4989555;28;101215;-70
2023/07/12 10:10:38;;;;;;;14.77;3.03;;;24.40;99.90;;;;;;5045382;28;20045;-70
2023/07/12 10:13:51;;;;;;;12.40;2.67;;;24.50;99.90;;;;;;4968622;28;223484;-69
2023/07/12 10:16:26;;;;;;;8.07;2.03;;;23.70;99.90;;;;;;4978156;28;20057;-70
2023/07/12 10:18:54;;;;;;;10.32;1.95;;;23.10;99.90;;;;;;4968684;28;205327;-69
2023/07/12 10:21:24;;;;;;;8.35;1.80;;;22.20;99.90;;;;;;5030681;28;20058;-70
2023/07/12 10:24:01;;;;;;;7.65;1.90;;;21.80;99.90;;;;;;4960286;28;206660;-69
2023/07/12 10:26:28;;;;;;;10.40;1.98;;;22.50;99.90;;;;;;5031773;28;20521;-70
2023/07/12 10:29:01;;;;;;;7.22;1.40;;;23.20;99.90;;;;;;4960374;28;205429;-70
2023/07/12 10:31:43;;;;;;;9.10;1.77;;;23.80;99.90;;;;;;5011086;28;20411;-70
2023/07/12 10:34:19;;;;;;;8.20;1.80;;;24.10;99.90;;;;;;4965593;28;116201;-71
2023/07/12 10:36:47;;;;;;;8.75;1.73;;;24.90;99.90;;;;;;4976799;28;205841;-71
2023/07/12 10:39:13;;;;;;;8.63;2.05;;;24.60;99.90;;;;;;5039865;28;20062;-69
2023/07/12 10:41:46;;;;;;;8.68;1.70;;;25.00;99.90;;;;;;4964999;28;207864;-70
2023/07/12 10:44:16;;;;;;;9.57;2.00;;;25.20;97.80;;;;;;5011098;28;20061;-70
2023/07/12 10:46:54;;;;;;;8.43;2.22;;;24.50;99.20;;;;;;4977384;28;206745;-71
2023/07/12 10:49:44;;;;;;;7.20;1.73;;;23.90;99.90;;;;;;5025353;28;20057;-70
2023/07/12 10:52:10;;;;;;;7.13;1.63;;;23.40;99.90;;;;;;4972378;28;207126;-69
2023/07/12 10:54:36;;;;;;;8.45;1.70;;;22.90;99.90;;;;;;4995821;28;20061;-70
2023/07/12 10:57:22;;;;;;;8.57;1.90;;;23.70;99.90;;;;;;4955118;28;206760;-69
2023/07/12 11:00:03;;;;;;;7.97;1.70;;;24.50;99.40;;;;;;5008974;28;20703;-71
2023/07/12 11:02:45;;;;;;;9.60;1.92;;;24.30;98.90;;;;;;4965883;28;206664;-71
2023/07/12 11:05:38;;;;;;;9.40;1.88;;;23.80;99.80;;;;;;5016706;28;20072;-70
2023/07/12 11:08:05;;;;;;;11.20;2.10;;;23.70;99.90;;;;;;4947962;28;208897;-71
2023/07/12 11:10:36;;;;;;;10.57;2.05;;;23.80;99.90;;;;;;5004727;28;20098;-71
2023/07/12 11:13:12;;;;;;;8.15;1.70;;;24.20;99.90;;;;;;4973459;28;211772;-71
2023/07/12 11:16:15;;;;;;;6.50;1.48;;;24.80;98.70;;;;;;5031527;28;20483;-71
2023/07/12 11:18:51;;;;;;;9.00;1.90;;;24.70;97.10;;;;;;4955205;28;166312;-70
2023/07/12 11:21:51;;;;;;;10.77;2.08;;;24.40;98.40;;;;;;5023936;28;20257;-70
2023/07/12 11:24:25;;;;;;;9.10;1.77;;;24.20;98.00;;;;;;4934249;28;209571;-71
2023/07/12 11:27:00;;;;;;;9.97;2.10;;;23.70;98.40;;;;;;4972251;28;203957;-71
2023/07/12 11:29:44;;;;;;;8.95;1.90;;;23.80;99.90;;;;;;4999761;28;20465;-70
2023/07/12 11:32:32;;;;;;;10.90;2.05;;;24.30;99.90;;;;;;4956771;28;209093;-71
2023/07/12 11:35:19;;;;;;;9.70;2.05;;;24.90;99.20;;;;;;5025029;28;20045;-71
2023/07/12 11:37:48;;;;;;;8.82;1.90;;;25.60;98.00;;;;;;4953662;28;197806;-69
2023/07/12 11:40:24;;;;;;;10.05;2.33;;;25.50;96.90;;;;;;5020372;28;20529;-70
2023/07/12 11:42:50;;;;;;;8.90;1.90;;;25.40;98.60;;;;;;4964764;28;175162;-69
2023/07/12 11:45:20;;;;;;;9.98;1.83;;;24.90;97.90;;;;;;5021616;28;20059;-70
2023/07/12 11:47:51;;;;;;;8.57;1.80;;;23.90;97.00;;;;;;4968435;28;206421;-71
2023/07/12 11:50:28;;;;;;;8.82;1.80;;;23.40;98.10;;;;;;5022503;28;20060;-69
2023/07/12 11:52:55;;;;;;;7.60;1.75;;;24.20;98.80;;;;;;4975003;28;181558;-70
2023/07/12 11:55:30;;;;;;;11.32;1.77;;;24.70;98.80;;;;;;5010808;28;20061;-71
2023/07/12 11:57:56;;;;;;;8.30;1.85;;;24.90;96.20;;;;;;4952512;28;208315;-71
2023/07/12 12:00:26;;;;;;;10.00;1.55;;;24.80;96.70;;;;;;5003456;28;20066;-70
2023/07/12 12:02:55;;;;;;;8.60;1.83;;;24.20;97.10;;;;;;4963469;28;204360;-71
2023/07/12 12:05:28;;;;;;;6.72;1.40;;;24.20;97.50;;;;;;5028207;28;20049;-69
2023/07/12 12:07:56;;;;;;;10.65;1.38;;;24.60;97.70;;;;;;4959953;28;207770;-70
2023/07/12 12:10:32;;;;;;;8.05;1.60;;;24.50;97.20;;;;;;4998135;28;20062;-69
2023/07/12 12:12:59;;;;;;;7.15;1.30;;;24.90;95.50;;;;;;4946242;28;200548;-70
2023/07/12 12:15:30;;;;;;;8.77;1.50;;;24.80;95.60;;;;;;5006221;28;20128;-71
2023/07/12 12:17:57;;;;;;;8.82;1.35;;;24.70;96.60;;;;;;4943810;28;206467;-70
2023/07/12 12:20:28;;;;;;;6.95;1.77;;;25.20;95.40;;;;;;5005915;28;20534;-71
2023/07/12 12:23:15;;;;;;;10.70;1.75;;;25.10;94.40;;;;;;4956943;28;206014;-70
2023/07/12 12:25:49;;;;;;;9.68;1.83;;;24.90;94.30;;;;;;5029175;28;20045;-71
2023/07/12 12:28:25;;;;;;;8.27;1.65;;;24.90;95.60;;;;;;4953794;28;218051;-70
2023/07/12 12:31:00;;;;;;;7.65;1.40;;;25.40;95.20;;;;;;5008977;28;20054;-70
2023/07/12 12:33:29;;;;;;;8.25;1.65;;;24.90;93.90;;;;;;4958294;28;209196;-70
2023/07/12 12:36:01;;;;;;;6.90;1.30;;;23.90;95.40;;;;;;5010128;28;20065;-70
2023/07/12 12:38:35;;;;;;;7.10;1.63;;;23.70;95.90;;;;;;4960820;28;208997;-70
2023/07/12 12:41:15;;;;;;;7.30;1.48;;;23.50;96.10;;;;;;5015602;28;20050;-72
2023/07/12 12:44:17;;;;;;;9.03;1.40;;;23.80;96.20;;;;;;4943225;28;205656;-71
2023/07/12 12:46:47;;;;;;;8.00;1.50;;;24.00;95.30;;;;;;4956075;28;208479;-71
2023/07/12 12:49:24;;;;;;;7.68;1.50;;;23.80;95.80;;;;;;5035882;28;20066;-71